KBLV/BLV METAR and TAF weather

Enter ICAO airport designator
Station Type Date Time Source
KBLV METAR 2018/12/12 16:56 UTC NOAA

KBLV 121656Z AUTO 23014KT 10SM FEW160 12/00 A2991 RMK AO2 SLP133 T01150000 $


Station Type Date Time Source
KBLV Decoded METAR 2018/12/12 16:56 UTC NOAA

Belleville, Scott AFB/MidAmerica Airport, IL, United States (KBLV) 38-33N 089-51W
Dec 12, 2018 - 11:56 AM EST / 2018.12.12 1656 UTC
Wind: from the SW (230 degrees) at 16 MPH (14 KT):0
Visibility: 10 mile(s):0
Sky conditions: mostly clear
Temperature: 52.7 F (11.5 C)
Dew Point: 32.0 F (0.0 C)
Relative Humidity: 45%
Pressure (altimeter): 29.91 in. Hg (1012 hPa)
ob: KBLV 121656Z AUTO 23014KT 10SM FEW160 12/00 A2991 RMK AO2 SLP133 T01150000
cycle: 17

Station Type Date Time Source
KBLV TAF 2018/12/12 16:27 UTC NOAA

TAF TAF KBLV 121600Z 1216/1322 26012G18KT 9999 FEW250 QNH2988INS
BECMG 1220/1221 VRB06KT 9999 FEW030 QNH2988INS
BECMG 1304/1305 16009KT 8000 BR OVC008 QNH2994INS
TEMPO 1305/1308 SCT008 BKN010
BECMG 1314/1315 14009KT 8000 -RA OVC008 620807 QNH2991INS TX12/1220Z TN05/1303Z


Example: see airport list